Time;durP1;ratioP1;P1;durP2;ratioP2;P2;SDS_P1;SDS_P2;PMS_P1;PMS_P2;Temp;Humidity;BMP_temperature;BMP_pressure;BME280_temperature;BME280_humidity;BME280_pressure;Samples;Min_cycle;Max_cycle;Signal;HPM_P1;HPM_P2
2024/03/10 00:00:41;;;;;;;68.00;29.85;;;;;;;3.57;100.00;100180.66;5065774;28;20073;-76
2024/03/10 00:03:07;;;;;;;71.13;31.13;;;;;;;3.62;100.00;100185.56;5082814;28;20029;-76
2024/03/10 00:05:34;;;;;;;62.60;29.67;;;;;;;3.60;100.00;100184.84;5067622;28;20013;-76
2024/03/10 00:07:59;;;;;;;85.57;32.70;;;;;;;3.58;100.00;100185.00;5068168;28;20075;-76
2024/03/10 00:10:25;;;;;;;63.55;28.23;;;;;;;3.66;100.00;100180.88;5069079;28;20514;-76
2024/03/10 00:12:50;;;;;;;68.78;31.42;;;;;;;3.47;100.00;100163.13;5069127;28;20876;-78
2024/03/10 00:15:16;;;;;;;74.50;31.55;;;;;;;3.61;100.00;100173.34;5074301;28;20478;-76
2024/03/10 00:17:43;;;;;;;71.15;29.42;;;;;;;3.61;100.00;100169.88;5082484;28;20040;-76
2024/03/10 00:20:09;;;;;;;68.95;31.38;;;;;;;3.54;100.00;100169.56;5084149;28;20020;-76
2024/03/10 00:22:41;;;;;;;66.72;30.55;;;;;;;3.48;100.00;100165.63;5077892;28;20383;-76
2024/03/10 00:25:08;;;;;;;66.00;30.38;;;;;;;3.59;100.00;100172.63;5074668;28;20475;-77
2024/03/10 00:27:34;;;;;;;68.55;30.67;;;;;;;3.54;100.00;100162.47;5073699;28;20042;-76
2024/03/10 00:30:00;;;;;;;67.07;30.02;;;;;;;3.49;100.00;100162.03;5068837;28;20387;-76
2024/03/10 00:32:25;;;;;;;75.47;32.78;;;;;;;3.53;100.00;100166.06;5080222;28;20028;-76
2024/03/10 00:34:52;;;;;;;68.55;31.67;;;;;;;3.43;100.00;100164.34;5084081;28;20205;-77
2024/03/10 00:37:18;;;;;;;70.55;31.13;;;;;;;3.55;100.00;100169.41;5058416;28;20127;-76
2024/03/10 00:39:43;;;;;;;72.65;32.45;;;;;;;3.50;100.00;100162.84;5082572;28;20195;-76
2024/03/10 00:42:08;;;;;;;71.57;31.07;;;;;;;3.48;100.00;100159.50;5085582;28;20036;-76
2024/03/10 00:44:34;;;;;;;82.30;33.42;;;;;;;3.49;100.00;100162.03;5085562;28;20035;-76
2024/03/10 00:46:59;;;;;;;74.70;32.60;;;;;;;3.51;100.00;100156.59;5077103;28;20024;-77
2024/03/10 00:49:25;;;;;;;77.93;33.15;;;;;;;3.38;100.00;100155.00;5079120;28;20145;-76
2024/03/10 00:51:50;;;;;;;86.03;34.08;;;;;;;3.51;100.00;100170.66;5076835;28;20033;-77
2024/03/10 00:54:15;;;;;;;84.70;35.67;;;;;;;3.43;100.00;100145.88;5072067;28;20379;-77
2024/03/10 00:56:41;;;;;;;74.07;32.05;;;;;;;3.51;100.00;100160.09;5066643;28;20321;-76
2024/03/10 00:59:08;;;;;;;85.80;37.10;;;;;;;3.44;100.00;100144.91;5057336;28;20028;-76
2024/03/10 01:01:34;;;;;;;70.38;31.33;;;;;;;3.52;100.00;100156.47;5080796;28;20032;-76
2024/03/10 01:03:59;;;;;;;78.38;34.15;;;;;;;3.40;100.00;100136.41;5068120;28;20382;-76
2024/03/10 01:06:25;;;;;;;79.85;34.20;;;;;;;3.47;100.00;100149.94;5086307;28;20066;-76
2024/03/10 01:08:51;;;;;;;72.32;32.80;;;;;;;3.52;100.00;100145.09;5068064;28;20373;-76
2024/03/10 01:11:16;;;;;;;75.93;33.97;;;;;;;3.55;100.00;100139.53;5086531;28;20050;-76
2024/03/10 01:13:43;;;;;;;68.70;31.97;;;;;;;3.52;100.00;100129.25;5068080;28;20035;-77
2024/03/10 01:16:09;;;;;;;77.88;32.65;;;;;;;3.41;100.00;100116.13;5071227;28;20342;-76
2024/03/10 01:18:34;;;;;;;82.70;33.13;;;;;;;3.44;100.00;100126.44;5077257;28;20099;-76
2024/03/10 01:21:00;;;;;;;73.85;32.78;;;;;;;3.50;100.00;100133.81;5084970;28;20024;-76
2024/03/10 01:23:25;;;;;;;84.93;34.85;;;;;;;3.47;100.00;100131.47;5086143;28;20878;-76
2024/03/10 01:25:51;;;;;;;72.30;33.80;;;;;;;3.43;100.00;100130.88;5076112;28;20104;-76
2024/03/10 01:28:16;;;;;;;70.88;32.38;;;;;;;3.52;100.00;100134.53;5062889;28;20093;-77
2024/03/10 01:30:42;;;;;;;85.55;34.30;;;;;;;3.47;100.00;100127.00;5084651;28;20441;-76
2024/03/10 01:33:08;;;;;;;69.43;32.72;;;;;;;3.50;100.00;100120.63;5084917;28;20417;-76
2024/03/10 01:35:33;;;;;;;78.68;32.90;;;;;;;3.52;100.00;100113.41;5084337;28;20051;-76
2024/03/10 01:37:58;;;;;;;72.95;32.97;;;;;;;3.48;100.00;100114.66;5084319;28;20383;-77
2024/03/10 01:40:24;;;;;;;82.93;35.72;;;;;;;3.44;100.00;100110.59;5086400;28;20039;-76
2024/03/10 01:42:54;;;;;;;79.00;33.85;;;;;;;3.44;100.00;100118.50;5085948;28;20028;-77
2024/03/10 01:45:19;;;;;;;73.80;32.90;;;;;;;3.52;100.00;100121.34;5084631;28;20025;-76
2024/03/10 01:47:47;;;;;;;91.70;38.10;;;;;;;3.45;100.00;100099.91;5084496;28;20070;-76
2024/03/10 01:50:13;;;;;;;73.97;34.85;;;;;;;3.40;100.00;100094.19;5084861;28;20042;-76
2024/03/10 01:52:40;;;;;;;83.60;33.53;;;;;;;3.46;100.00;100111.28;5079055;28;20376;-77
2024/03/10 01:55:06;;;;;;;88.55;33.20;;;;;;;3.49;100.00;100098.69;5066705;28;21975;-77
2024/03/10 01:57:32;;;;;;;74.70;32.33;;;;;;;3.53;100.00;100099.25;5067708;28;20509;-76
2024/03/10 02:00:00;;;;;;;;;;;;;;;3.45;100.00;100097.28;5069693;28;20036;-76
2024/03/10 02:02:25;;;;;;;78.97;32.45;;;;;;;3.47;100.00;100086.59;5087112;28;20466;-76
2024/03/10 02:04:51;;;;;;;77.28;33.20;;;;;;;3.37;100.00;100076.84;5080446;28;20032;-76
2024/03/10 02:07:16;;;;;;;83.68;34.92;;;;;;;3.42;100.00;100087.00;5077396;28;20111;-76
2024/03/10 02:09:44;;;;;;;85.43;35.55;;;;;;;3.46;100.00;100096.28;5069202;28;20127;-77
2024/03/10 02:12:11;;;;;;;76.40;32.58;;;;;;;3.50;100.00;100096.88;5089799;28;20107;-76
2024/03/10 02:14:37;;;;;;;81.28;33.80;;;;;;;3.46;100.00;100090.19;5082809;28;20082;-76
2024/03/10 02:17:03;;;;;;;74.70;30.50;;;;;;;3.52;100.00;100081.75;5079801;28;20463;-76
2024/03/10 02:19:29;;;;;;;82.30;35.20;;;;;;;3.52;100.00;100081.75;5080047;28;20101;-76
2024/03/10 02:21:57;;;;;;;77.45;32.97;;;;;;;3.53;100.00;100078.13;5080334;28;20103;-76
2024/03/10 02:24:31;;;;;;;80.60;32.53;;;;;;;3.53;100.00;100080.75;5065362;28;20031;-76
2024/03/10 02:26:57;;;;;;;78.45;33.05;;;;;;;3.56;100.00;100080.53;5069554;28;20040;-76
2024/03/10 02:29:23;;;;;;;;;;;;;;;3.38;100.00;100053.91;5052323;28;20082;-76
2024/03/10 02:48:16;;;;;;;77.47;34.13;;;;;;;3.53;100.00;100083.41;5087777;28;20085;-76
2024/03/10 02:50:41;;;;;;;76.75;35.53;;;;;;;3.53;100.00;100083.41;5087983;28;20448;-76
2024/03/10 02:53:07;;;;;;;77.45;34.42;;;;;;;3.47;100.00;100081.31;5071256;28;20429;-77
2024/03/10 02:55:33;;;;;;;81.13;34.78;;;;;;;3.51;100.00;100080.06;5073315;28;20029;-76
2024/03/10 02:58:06;;;;;;;80.38;32.47;;;;;;;3.53;100.00;100078.13;5081057;28;20514;-76
2024/03/10 03:00:35;;;;;;;74.68;33.67;;;;;;;3.53;100.00;100073.69;5081280;28;20129;-76
2024/03/10 03:03:03;;;;;;;81.55;35.38;;;;;;;3.52;100.00;100068.56;5077731;28;20186;-76
2024/03/10 03:05:28;;;;;;;91.38;35.13;;;;;;;3.58;100.00;100079.41;5087097;28;20028;-76
2024/03/10 03:07:59;;;;;;;74.47;33.80;;;;;;;3.68;100.00;100082.09;5087845;28;20032;-77
2024/03/10 03:10:25;;;;;;;77.88;33.78;;;;;;;3.64;100.00;100064.84;5089297;28;20032;-76
2024/03/10 03:12:53;;;;;;;;;;;;;;;3.56;100.00;100057.59;5089577;28;20028;-77
2024/03/10 03:15:18;;;;;;;78.38;34.42;;;;;;;3.69;100.00;100078.47;5082097;28;19966;-76
2024/03/10 03:17:44;;;;;;;80.28;34.83;;;;;;;3.71;100.00;100079.16;5065866;28;20059;-76
2024/03/10 03:20:15;;;;;;;76.82;35.47;;;;;;;3.68;100.00;100070.69;5072127;28;20034;-76
2024/03/10 03:22:45;;;;;;;86.05;36.95;;;;;;;3.80;100.00;100069.59;5087438;28;20071;-76
2024/03/10 03:25:14;;;;;;;72.07;34.63;;;;;;;3.75;100.00;100067.38;5086699;28;20020;-76
2024/03/10 03:27:47;;;;;;;79.32;36.05;;;;;;;3.84;100.00;100064.88;5073086;23;20045;-72
2024/03/10 03:30:13;;;;;;;79.38;34.85;;;;;;;3.83;100.00;100063.22;5047027;28;20044;-72
2024/03/10 03:32:38;;;;;;;68.97;32.40;;;;;;;3.84;100.00;100059.59;5045954;28;20028;-71
2024/03/10 03:35:04;;;;;;;74.53;35.00;;;;;;;3.97;100.00;100073.38;5049442;28;20061;-73
2024/03/10 03:37:30;;;;;;;75.03;34.97;;;;;;;3.92;100.00;100057.13;5076411;28;20020;-72
2024/03/10 03:39:56;;;;;;;;;;;;;;;3.95;100.00;100052.38;5068778;28;20025;-71
2024/03/10 03:42:22;;;;;;;71.30;34.10;;;;;;;3.92;100.00;100041.28;5072754;28;19916;-72
2024/03/10 03:44:49;;;;;;;69.57;34.00;;;;;;;3.89;100.00;100037.09;5067175;28;20028;-72
2024/03/10 03:47:15;;;;;;;73.50;33.03;;;;;;;3.90;100.00;100035.28;5065350;28;20530;-72
2024/03/10 03:49:43;;;;;;;;;;;;;;;3.83;100.00;100024.44;5076404;28;20131;-70
2024/03/10 03:52:08;;;;;;;75.32;35.42;;;;;;;3.80;100.00;100017.63;5078879;28;19912;-73
2024/03/10 03:54:34;;;;;;;80.00;33.22;;;;;;;3.77;100.00;100025.00;5085665;28;20651;-73
2024/03/10 03:57:00;;;;;;;80.32;34.55;;;;;;;3.84;100.00;100034.03;5086518;28;20036;-73
2024/03/10 03:59:25;;;;;;;83.97;35.70;;;;;;;3.81;100.00;100029.84;5081222;28;20419;-72
2024/03/10 04:01:51;;;;;;;75.93;32.83;;;;;;;3.80;100.00;100035.28;5086446;28;20063;-70
2024/03/10 04:04:16;;;;;;;88.40;35.55;;;;;;;3.78;100.00;100032.75;5086665;28;20541;-71
2024/03/10 04:06:43;;;;;;;81.38;36.38;;;;;;;3.93;100.00;100046.44;5086530;28;20035;-72
2024/03/10 04:09:09;;;;;;;80.07;32.83;;;;;;;3.74;100.00;100012.88;5084516;28;20031;-73
2024/03/10 04:11:35;;;;;;;75.80;36.03;;;;;;;3.63;100.00;100018.28;5086651;28;20034;-71
2024/03/10 04:14:00;;;;;;;77.72;37.90;;;;;;;3.71;100.00;100029.00;5086272;28;20028;-73
2024/03/10 04:16:26;;;;;;;81.13;37.05;;;;;;;3.63;100.00;100013.03;5068122;28;20402;-70
2024/03/10 04:18:51;;;;;;;78.85;38.10;;;;;;;3.56;100.00;100015.34;5084526;28;20044;-71
2024/03/10 04:21:17;;;;;;;79.90;35.57;;;;;;;3.67;100.00;100026.75;5079517;28;20107;-73
2024/03/10 04:23:42;;;;;;;78.47;35.78;;;;;;;3.63;100.00;100023.56;5070223;28;20032;-73
2024/03/10 04:26:09;;;;;;;85.85;36.55;;;;;;;3.60;100.00;100021.19;5059141;28;20131;-71
2024/03/10 04:28:37;;;;;;;81.68;38.42;;;;;;;3.55;100.00;100013.69;5085708;28;20036;-73
2024/03/10 04:31:02;;;;;;;76.40;35.90;;;;;;;3.47;100.00;100015.34;5068148;28;20030;-73
2024/03/10 04:33:28;;;;;;;76.97;35.80;;;;;;;3.43;100.00;100024.50;5071070;28;20406;-71
2024/03/10 04:35:53;;;;;;;81.73;35.23;;;;;;;3.48;100.00;100028.38;5081400;28;20050;-73
2024/03/10 04:38:18;;;;;;;82.30;37.10;;;;;;;3.40;100.00;100012.41;5064211;28;20310;-73
2024/03/10 04:40:44;;;;;;;76.65;36.35;;;;;;;3.43;100.00;100041.16;5073044;28;20040;-72
2024/03/10 04:43:10;;;;;;;81.35;36.30;;;;;;;3.47;100.00;100049.66;5085319;28;20028;-72
2024/03/10 04:45:35;;;;;;;;;;;;;;;3.38;100.00;100044.19;5070160;28;20585;-71
2024/03/10 04:48:02;;;;;;;79.78;35.38;;;;;;;3.35;100.00;100047.09;5047391;28;19913;-70
2024/03/10 04:50:29;;;;;;;87.13;35.33;;;;;;;3.35;100.00;100057.66;5064361;28;20070;-73
2024/03/10 04:52:54;;;;;;;82.05;37.45;;;;;;;3.46;100.00;100063.78;5059764;28;20029;-72
2024/03/10 04:55:20;;;;;;;77.10;35.53;;;;;;;3.37;100.00;100052.22;5070410;28;20425;-73
2024/03/10 04:57:47;;;;;;;83.07;38.08;;;;;;;3.33;100.00;100056.94;5066911;28;20039;-72
2024/03/10 05:00:16;;;;;;;83.40;37.05;;;;;;;3.36;100.00;100061.94;5081877;28;20043;-72
2024/03/10 05:02:41;;;;;;;88.38;36.28;;;;;;;3.29;100.00;100055.53;5064661;28;20024;-71
2024/03/10 05:05:07;;;;;;;88.43;38.83;;;;;;;3.25;100.00;100048.84;5066098;28;20513;-72
2024/03/10 05:07:33;;;;;;;81.20;37.33;;;;;;;3.39;100.00;100079.31;5084893;28;20077;-72
2024/03/10 05:09:58;;;;;;;87.75;38.53;;;;;;;3.36;100.00;100061.94;5067673;28;20036;-71
2024/03/10 05:12:24;;;;;;;92.80;38.47;;;;;;;3.34;100.00;100063.06;5067176;28;20035;-73
2024/03/10 05:14:50;;;;;;;86.70;38.35;;;;;;;3.36;100.00;100067.22;5076640;28;20040;-73
2024/03/10 05:17:15;;;;;;;86.70;38.83;;;;;;;3.41;100.00;100076.56;5084753;28;20077;-73
2024/03/10 05:19:42;;;;;;;84.00;38.28;;;;;;;3.48;100.00;100077.69;5084951;28;20398;-70
2024/03/10 05:22:09;;;;;;;86.53;38.60;;;;;;;3.52;100.00;100082.56;5076747;28;20070;-73
2024/03/10 05:24:43;;;;;;;81.55;37.92;;;;;;;3.49;100.00;100079.34;5069527;28;20027;-72
2024/03/10 05:27:15;;;;;;;78.53;37.50;;;;;;;3.49;100.00;100077.56;5066604;28;20059;-73
2024/03/10 05:29:41;;;;;;;90.13;36.72;;;;;;;3.45;100.00;100067.41;5068631;28;20067;-70
2024/03/10 05:32:07;;;;;;;93.78;40.08;;;;;;;3.53;100.00;100080.75;5066409;28;20050;-70
2024/03/10 05:34:32;;;;;;;90.57;39.00;;;;;;;3.53;100.00;100078.13;5084672;28;20036;-73
2024/03/10 05:36:59;;;;;;;84.88;38.63;;;;;;;3.51;100.00;100073.00;5089133;28;20067;-73
2024/03/10 05:39:24;;;;;;;88.88;41.10;;;;;;;3.57;100.00;100075.09;5090908;28;20709;-72
2024/03/10 05:41:50;;;;;;;85.88;38.22;;;;;;;3.54;100.00;100063.97;5089363;28;20035;-72
2024/03/10 05:44:15;;;;;;;81.00;37.30;;;;;;;3.44;100.00;100063.09;5090943;28;20032;-72
2024/03/10 05:46:43;;;;;;;83.83;36.80;;;;;;;3.42;100.00;100057.97;5074407;28;20705;-70
2024/03/10 05:49:09;;;;;;;96.07;40.85;;;;;;;3.52;100.00;100082.56;5056997;28;20375;-71
2024/03/10 05:51:34;;;;;;;92.93;38.28;;;;;;;3.56;100.00;100077.88;5090990;28;20146;-73
2024/03/10 05:54:00;;;;;;;83.18;38.63;;;;;;;3.56;100.00;100062.88;5073169;28;20024;-73
2024/03/10 05:56:25;;;;;;;89.45;37.55;;;;;;;3.62;100.00;100082.59;5076456;28;20032;-72
2024/03/10 05:58:51;;;;;;;75.10;35.92;;;;;;;3.67;100.00;100074.28;5069786;28;20031;-71
2024/03/10 06:01:23;;;;;;;92.95;37.97;;;;;;;3.63;100.00;100071.09;5090262;28;20105;-70
2024/03/10 06:03:51;;;;;;;79.35;36.20;;;;;;;3.73;100.00;100079.03;5073427;28;20395;-73
2024/03/10 06:06:16;;;;;;;83.18;36.13;;;;;;;3.72;100.00;100075.56;5075245;28;20038;-72
2024/03/10 06:08:42;;;;;;;81.18;38.15;;;;;;;3.74;100.00;100075.41;5090415;28;20381;-73
2024/03/10 06:11:07;;;;;;;82.77;37.33;;;;;;;3.79;100.00;100075.84;5089513;28;20017;-71
2024/03/10 06:13:32;;;;;;;75.10;36.10;;;;;;;3.82;100.00;100072.94;5079941;28;20327;-73
2024/03/10 06:15:58;;;;;;;79.93;35.87;;;;;;;3.93;100.00;100079.91;5087846;28;20737;-73
2024/03/10 06:25:22;;;;;;;82.20;36.42;;;;;;;3.87;100.00;100059.34;5089722;28;20111;-71
2024/03/10 06:26:36;;;;;;;78.88;35.58;;;;;;;4.02;100.00;100052.69;5085268;28;20051;-72
2024/03/10 06:29:02;;;;;;;70.13;35.45;;;;;;;4.11;100.00;100051.84;5087602;28;20035;-71
2024/03/10 06:31:27;;;;;;;76.18;34.70;;;;;;;4.18;100.00;100044.22;5076145;28;20039;-73
2024/03/10 06:33:53;;;;;;;69.72;34.33;;;;;;;4.27;100.00;100045.19;5084357;28;20085;-73
2024/03/10 06:36:19;;;;;;;73.18;34.05;;;;;;;4.13;100.00;100020.84;5090021;28;20036;-73
2024/03/10 06:38:45;;;;;;;79.00;35.00;;;;;;;4.19;100.00;100016.81;5090225;28;20023;-73
2024/03/10 06:41:11;;;;;;;70.50;31.83;;;;;;;4.28;100.00;100017.78;5088658;28;20037;-73
2024/03/10 06:43:40;;;;;;;69.75;32.00;;;;;;;4.31;100.00;100009.56;5074277;28;20024;-73
2024/03/10 06:46:09;;;;;;;67.43;32.30;;;;;;;4.46;100.00;100005.53;5071690;28;20036;-73
2024/03/10 06:48:35;;;;;;;67.72;34.15;;;;;;;4.56;100.00;100003.69;5085496;28;20031;-73
2024/03/10 06:51:01;;;;;;;66.60;32.70;;;;;;;4.59;100.00;99978.81;5069594;28;20075;-70
2024/03/10 06:53:27;;;;;;;71.72;33.85;;;;;;;4.35;100.00;99921.13;5078046;28;20059;-72
2024/03/10 06:55:55;;;;;;;68.72;31.73;;;;;;;4.56;100.00;99966.69;5078168;28;20032;-73
2024/03/10 06:58:21;;;;;;;68.18;32.85;;;;;;;4.62;100.00;99946.78;5086667;28;20825;-70
2024/03/10 07:00:46;;;;;;;72.28;32.78;;;;;;;4.50;100.00;99930.28;5087970;28;20058;-72
2024/03/10 07:03:12;;;;;;;67.75;28.92;;;;;;;4.72;100.00;99942.31;5083219;28;20453;-73
2024/03/10 07:05:40;;;;;;;61.53;30.63;;;;;;;4.75;100.00;99917.38;5068861;28;20034;-73
2024/03/10 07:08:07;;;;;;;58.22;30.35;;;;;;;5.02;100.00;99914.75;5076071;28;20439;-70
2024/03/10 07:10:35;;;;;;;70.38;34.25;;;;;;;4.79;100.00;99871.16;5075781;28;20118;-71
2024/03/10 07:13:04;;;;;;;67.15;31.63;;;;;;;4.96;100.00;99869.53;5070793;28;20036;-73
2024/03/10 07:15:33;;;;;;;65.95;30.90;;;;;;;5.07;100.00;99858.75;5075092;28;20500;-73
2024/03/10 07:17:58;;;;;;;67.18;30.20;;;;;;;4.90;100.00;99815.41;5086330;28;20498;-71
2024/03/10 07:20:24;;;;;;;65.32;30.85;;;;;;;5.14;100.00;99843.94;5080486;28;20027;-72
2024/03/10 07:22:53;;;;;;;61.88;28.52;;;;;;;5.34;100.00;99838.50;5085911;28;20044;-73
2024/03/10 07:25:19;;;;;;;59.30;29.30;;;;;;;5.35;100.00;99801.31;5067457;28;20103;-72
2024/03/10 07:27:45;;;;;;;62.38;29.65;;;;;;;5.45;100.00;99794.09;5069608;28;20120;-71
2024/03/10 07:30:10;;;;;;;70.22;31.63;;;;;;;5.73;100.00;99778.09;5078171;28;20044;-73
2024/03/10 07:32:36;;;;;;;59.22;27.88;;;;;;;5.64;100.00;99716.34;5086027;28;20105;-72
2024/03/10 07:35:02;;;;;;;64.23;27.80;;;;;;;6.01;100.00;99719.69;5070375;28;20483;-73
2024/03/10 07:37:27;;;;;;;;;;;;;;;6.28;100.00;99669.13;5085825;28;20032;-73
2024/03/10 07:39:53;;;;;;;58.08;27.30;;;;;;;6.15;100.00;99593.72;5069284;28;19908;-72
2024/03/10 07:42:22;;;;;;;54.38;27.98;;;;;;;6.51;100.00;99589.00;5068071;28;20414;-71
2024/03/10 07:44:47;;;;;;;65.18;28.48;;;;;;;6.53;100.00;99531.28;5069913;28;20513;-72
2024/03/10 07:47:13;;;;;;;52.65;27.33;;;;;;;6.18;100.00;99394.63;5084306;28;20036;-73
2024/03/10 07:49:39;;;;;;;54.77;27.47;;;;;;;6.33;100.00;99475.94;5075020;28;20277;-73
2024/03/10 07:52:05;;;;;;;52.15;26.95;;;;;;;6.86;100.00;99507.38;5080989;28;20288;-73
2024/03/10 07:54:31;;;;;;;59.45;27.17;;;;;;;6.47;100.00;99333.13;5084904;28;20799;-71
2024/03/10 07:56:57;;;;;;;;;;;;;;;5.93;100.00;99390.13;5063446;28;20720;-73
2024/03/10 07:59:22;;;;;;;53.42;27.23;;;;;;;6.08;100.00;99384.19;5083912;28;19919;-73
2024/03/10 08:01:49;;;;;;;64.30;26.73;;;;;;;6.75;100.00;99522.66;5069227;28;20082;-72
2024/03/10 08:04:18;;;;;;;60.20;29.85;;;;;;;6.44;100.00;99373.19;5084240;28;20027;-73
2024/03/10 08:06:44;;;;;;;59.03;27.20;;;;;;;6.37;100.00;99406.69;5064582;28;20029;-73
2024/03/10 08:09:15;;;;;;;56.92;28.77;;;;;;;6.16;100.00;99367.47;5065385;28;20446;-72
2024/03/10 08:11:41;;;;;;;54.75;28.02;;;;;;;6.53;100.00;99404.84;5067940;28;20033;-73
2024/03/10 08:14:07;;;;;;;61.58;28.05;;;;;;;7.17;100.00;99457.06;5080528;28;20105;-73
2024/03/10 08:16:33;;;;;;;;;;;;;;;6.93;100.00;99235.94;5068378;28;20059;-72
2024/03/10 08:18:58;;;;;;;59.30;27.42;;;;;;;6.83;100.00;99301.63;5081188;28;19943;-73
2024/03/10 08:21:23;;;;;;;52.07;25.40;;;;;;;6.71;100.00;99272.00;5084651;28;20065;-71
2024/03/10 08:23:49;;;;;;;57.10;27.37;;;;;;;7.31;100.00;99302.34;5068473;28;20281;-73
2024/03/10 08:26:14;;;;;;;55.58;27.55;;;;;;;7.96;100.00;99266.44;5076014;28;20464;-73
2024/03/10 08:28:40;;;;;;;51.78;25.77;;;;;;;7.53;100.00;99035.09;5080729;28;20048;-71
2024/03/10 08:31:05;;;;;;;52.13;27.27;;;;;;;7.90;100.00;99125.50;5082912;28;20067;-73
2024/03/10 08:33:31;;;;;;;52.97;27.05;;;;;;;8.15;100.00;99039.13;5084189;28;20051;-71
2024/03/10 08:35:56;;;;;;;50.17;25.63;;;;;;;8.42;100.00;98971.06;5082578;28;20433;-72
2024/03/10 08:38:26;;;;;;;52.40;26.53;;;;;;;7.82;100.00;98845.63;5084689;28;20682;-72
2024/03/10 08:40:54;;;;;;;53.60;27.38;;;;;;;8.35;100.00;98966.69;5083389;28;20575;-73
2024/03/10 08:43:20;;;;;;;56.00;27.55;;;;;;;8.41;100.00;98929.56;5083805;28;20386;-73
2024/03/10 08:45:46;;;;;;;51.05;27.05;;;;;;;8.86;100.00;98900.78;5083357;28;20498;-71
2024/03/10 08:48:12;;;;;;;48.00;27.27;;;;;;;9.16;100.00;98758.63;5060599;28;20044;-72
2024/03/10 08:50:37;;;;;;;53.90;27.77;;;;;;;8.24;100.00;98571.91;5069578;28;20127;-73
2024/03/10 08:53:04;;;;;;;52.05;26.77;;;;;;;7.53;100.00;98676.63;5064697;28;20036;-72
2024/03/10 08:55:30;;;;;;;49.00;25.52;;;;;;;8.28;100.00;98968.47;5071786;28;20032;-73
2024/03/10 08:57:55;;;;;;;53.95;26.58;;;;;;;9.04;100.00;98931.41;5081922;28;20042;-73
2024/03/10 09:00:20;;;;;;;54.53;26.60;;;;;;;9.15;100.00;98792.38;5058651;28;20047;-71
2024/03/10 09:02:46;;;;;;;48.63;26.47;;;;;;;8.52;100.00;98723.41;5057468;28;20075;-70
2024/03/10 09:05:15;;;;;;;47.10;25.97;;;;;;;9.33;100.00;98814.97;5076838;28;20029;-73
2024/03/10 09:07:41;;;;;;;54.28;26.50;;;;;;;8.93;100.00;98700.41;5069354;28;20324;-70
2024/03/10 09:10:08;;;;;;;50.53;25.70;;;;;;;8.44;100.00;98711.09;5065592;28;20113;-72
2024/03/10 09:12:33;;;;;;;51.35;27.73;;;;;;;7.99;100.00;98718.63;5083125;28;20538;-72
2024/03/10 09:14:59;;;;;;;48.33;26.30;;;;;;;8.30;100.00;98773.19;5066034;28;20119;-71
2024/03/10 09:17:25;;;;;;;55.43;26.87;;;;;;;8.78;100.00;98813.16;5078766;28;20316;-72
2024/03/10 09:19:50;;;;;;;49.17;25.67;;;;;;;8.20;100.00;98740.81;5065293;28;20316;-73
2024/03/10 09:22:16;;;;;;;48.38;26.10;;;;;;;8.80;100.00;98722.47;5072443;28;20049;-71
2024/03/10 09:24:42;;;;;;;54.83;26.83;;;;;;;8.23;100.00;98722.63;5078479;28;20028;-73
2024/03/10 09:27:08;;;;;;;48.13;24.90;;;;;;;8.12;100.00;98860.56;5082487;28;20044;-71
2024/03/10 09:29:34;;;;;;;56.65;27.63;;;;;;;8.14;100.00;98773.50;5070846;28;20032;-72
2024/03/10 09:32:01;;;;;;;53.78;26.85;;;;;;;8.52;100.00;98818.31;5064647;28;20040;-71
2024/03/10 09:34:26;;;;;;;50.58;25.50;;;;;;;9.43;100.00;99127.84;5067576;28;20518;-71
2024/03/10 09:36:54;;;;;;;50.83;25.83;;;;;;;9.12;100.00;98782.13;5077842;28;20031;-71
2024/03/10 09:39:22;;;;;;;52.38;25.45;;;;;;;8.58;100.00;98733.25;5084985;28;20024;-72
2024/03/10 09:41:49;;;;;;;50.13;26.08;;;;;;;10.02;100.00;99003.91;5085596;28;20036;-71
2024/03/10 09:44:19;;;;;;;51.33;26.15;;;;;;;8.95;100.00;98544.00;5068831;28;20040;-72
2024/03/10 09:46:49;;;;;;;53.72;27.23;;;;;;;9.81;100.00;98732.19;5069343;28;20040;-71
2024/03/10 09:49:20;;;;;;;50.55;29.27;;;;;;;10.47;100.00;98881.50;5064223;28;20044;-72
2024/03/10 09:51:49;;;;;;;47.22;25.17;;;;;;;10.24;100.00;98591.19;5080240;28;20051;-71
2024/03/10 09:54:18;;;;;;;49.88;24.98;;;;;;;11.20;100.00;98694.31;5085346;28;20024;-72
2024/03/10 09:56:45;;;;;;;44.50;24.73;;;;;;;10.12;100.00;97983.16;5085502;28;20036;-72
2024/03/10 09:59:30;;;;;;;50.28;27.45;;;;;;;9.48;100.00;98211.81;5083329;28;20055;-73
2024/03/10 10:02:01;;;;;;;54.00;27.42;;;;;;;10.90;100.00;98726.13;5085327;28;20181;-74
2024/03/10 10:04:39;;;;;;;51.50;25.80;;;;;;;11.14;100.00;98588.38;5077998;28;20079;-72
2024/03/10 10:07:08;;;;;;;53.88;27.92;;;;;;;9.57;100.00;98438.75;5084997;28;20036;-71
2024/03/10 10:09:35;;;;;;;52.47;26.77;;;;;;;8.99;100.00;98393.50;5070702;28;20495;-72
2024/03/10 10:12:01;;;;;;;53.10;27.75;;;;;;;8.85;100.00;98618.94;5064066;28;20047;-73
2024/03/10 10:14:29;;;;;;;;;;;;;;;9.72;100.00;98788.38;5085882;28;20043;-71
2024/03/10 10:16:56;;;;;;;49.33;25.20;;;;;;;9.73;100.00;98686.09;5085288;28;19912;-72
2024/03/10 10:19:25;;;;;;;60.25;27.27;;;;;;;9.53;100.00;98775.88;5085113;28;20123;-72
2024/03/10 10:21:51;;;;;;;49.05;26.38;;;;;;;10.87;100.00;98988.19;5077544;28;20522;-73
2024/03/10 10:24:19;;;;;;;46.75;25.48;;;;;;;10.95;100.00;98675.56;5076416;28;20033;-72
2024/03/10 10:26:59;;;;;;;49.55;26.75;;;;;;;9.94;100.00;98471.78;5074082;28;20028;-71
2024/03/10 10:29:25;;;;;;;50.03;27.90;;;;;;;10.53;100.00;98821.94;5086973;28;20035;-72
2024/03/10 10:31:58;;;;;;;48.47;26.67;;;;;;;11.62;100.00;98749.91;5085610;28;20028;-74
2024/03/10 10:34:24;;;;;;;45.95;25.65;;;;;;;11.56;100.00;98440.78;5058837;28;20408;-72
2024/03/10 10:36:51;;;;;;;;;;;;;;;10.75;100.00;98317.28;5083655;28;20138;-72
2024/03/10 10:39:24;;;;;;;51.45;26.35;;;;;;;9.59;100.00;98282.19;5069945;28;19916;-72
2024/03/10 10:41:51;;;;;;;52.17;28.30;;;;;;;10.49;100.00;98572.63;5075814;28;20059;-72
2024/03/10 10:44:19;;;;;;;55.67;26.98;;;;;;;10.80;100.00;98677.75;5076805;28;20046;-71
2024/03/10 10:46:45;;;;;;;48.90;26.92;;;;;;;11.10;100.00;98468.84;5086280;28;20039;-72
2024/03/10 10:49:11;;;;;;;51.03;27.50;;;;;;;10.13;100.00;98110.09;5068215;28;20035;-72
2024/03/10 10:51:36;;;;;;;;;;;;;;;10.10;100.00;98081.22;5075534;28;20504;-71
2024/03/10 10:54:11;;;;;;;53.05;26.17;;;;;;;11.18;100.00;98724.94;5066834;28;19912;-73
2024/03/10 10:56:38;;;;;;;53.42;26.63;;;;;;;11.31;100.00;98430.22;5075112;28;20036;-72
2024/03/10 10:59:04;;;;;;;50.65;26.92;;;;;;;11.02;100.00;98511.84;5067382;28;20662;-72
2024/03/10 11:01:30;;;;;;;43.03;25.60;;;;;;;12.37;100.00;98551.03;5071381;28;20560;-72
2024/03/10 11:03:57;;;;;;;53.30;27.83;;;;;;;11.38;99.19;97982.97;5067567;28;20064;-72
2024/03/10 11:06:23;;;;;;;53.05;27.90;;;;;;;12.21;100.00;98475.69;5069283;28;20035;-72
2024/03/10 11:08:52;;;;;;;44.40;26.40;;;;;;;13.07;98.39;98401.16;5087631;28;20441;-72
2024/03/10 11:11:44;;;;;;;48.63;27.25;;;;;;;13.03;96.67;98276.78;5069817;28;20024;-71
2024/03/10 11:14:13;;;;;;;49.10;26.52;;;;;;;12.45;95.72;98109.16;5086029;28;20028;-72
2024/03/10 11:16:40;;;;;;;48.33;25.42;;;;;;;12.66;95.42;98204.81;5081352;28;20027;-71
2024/03/10 11:19:13;;;;;;;46.50;25.52;;;;;;;12.92;93.43;98084.81;5056884;28;20032;-72
2024/03/10 11:21:39;;;;;;;46.10;26.50;;;;;;;11.41;93.97;97840.09;5066135;28;20033;-73
2024/03/10 11:24:08;;;;;;;46.25;25.75;;;;;;;13.16;94.62;98385.53;5066548;28;20016;-73
2024/03/10 11:26:34;;;;;;;51.00;26.50;;;;;;;13.14;92.18;98167.97;5087311;28;20506;-72
2024/03/10 11:29:00;;;;;;;46.50;25.88;;;;;;;12.90;90.98;97995.91;5087087;28;20032;-73
2024/03/10 11:31:28;;;;;;;47.05;25.90;;;;;;;13.51;91.12;98192.47;5087359;28;20028;-74
2024/03/10 11:33:57;;;;;;;43.70;26.77;;;;;;;14.24;89.84;98238.06;5086767;28;20371;-71